Time;durP1;ratioP1;P1;durP2;ratioP2;P2;SDS_P1;SDS_P2;PMS_P1;PMS_P2;Temp;Humidity;BMP_temperature;BMP_pressure;BME280_temperature;BME280_humidity;BME280_pressure;Samples;Min_cycle;Max_cycle;Signal;HPM_P1;HPM_P2
2021/05/20 00:01:21;;;;;;;0.65;0.45;;;10.90;99.90;;;;;;1877840;76;21193;-73
2021/05/20 00:03:47;;;;;;;1.30;0.30;;;10.90;99.90;;;;;;1877870;76;21108;-73
2021/05/20 00:06:13;;;;;;;1.62;0.60;;;10.90;99.90;;;;;;1877887;76;21190;-73
2021/05/20 00:08:40;;;;;;;1.27;0.37;;;10.80;99.90;;;;;;1877856;76;21134;-73
2021/05/20 00:11:06;;;;;;;0.85;0.42;;;10.70;99.90;;;;;;1877854;76;21112;-73
2021/05/20 00:13:32;;;;;;;0.75;0.50;;;10.70;99.90;;;;;;1877877;76;21214;-73
2021/05/20 00:15:58;;;;;;;0.30;0.30;;;10.70;99.90;;;;;;1872215;76;21182;-73
2021/05/20 00:18:24;;;;;;;0.65;0.50;;;10.70;99.90;;;;;;1877953;76;21095;-73
2021/05/20 00:20:50;;;;;;;0.45;0.45;;;10.80;99.90;;;;;;1877922;76;21070;-73
2021/05/20 00:23:16;;;;;;;0.53;0.40;;;10.80;99.90;;;;;;1877974;76;21095;-73
2021/05/20 00:25:42;;;;;;;0.53;0.45;;;10.80;99.90;;;;;;1877869;76;21099;-73
2021/05/20 00:28:09;;;;;;;1.35;0.50;;;10.90;99.90;;;;;;1877991;76;21087;-73
2021/05/20 00:30:35;;;;;;;0.40;0.30;;;10.90;99.90;;;;;;1877950;76;21080;-73
2021/05/20 00:33:01;;;;;;;1.10;0.60;;;10.90;99.90;;;;;;1877858;76;21177;-73
2021/05/20 00:35:27;;;;;;;0.47;0.40;;;10.80;99.90;;;;;;1877846;76;21189;-73
2021/05/20 00:37:53;;;;;;;1.65;0.72;;;10.80;99.90;;;;;;1877818;76;21091;-73
2021/05/20 00:40:19;;;;;;;0.40;0.30;;;10.70;99.90;;;;;;1877811;76;21130;-73
2021/05/20 00:42:45;;;;;;;0.30;0.30;;;10.70;99.90;;;;;;1877921;76;21558;-73
2021/05/20 00:45:11;;;;;;;4.67;0.50;;;10.80;99.90;;;;;;1877742;76;21499;-73
2021/05/20 00:47:38;;;;;;;0.93;0.42;;;10.70;99.90;;;;;;1877784;76;21514;-73
2021/05/20 00:50:04;;;;;;;1.37;0.50;;;10.80;99.90;;;;;;1877940;76;21521;-73
2021/05/20 00:52:30;;;;;;;3.90;0.47;;;10.80;99.90;;;;;;1877773;76;21558;-73
2021/05/20 00:54:56;;;;;;;1.55;0.40;;;10.90;99.90;;;;;;1877993;76;21160;-74
2021/05/20 00:57:22;;;;;;;1.70;0.53;;;10.90;99.90;;;;;;1877761;76;21100;-73
2021/05/20 00:59:48;;;;;;;1.07;0.50;;;10.80;99.90;;;;;;1878017;76;21148;-73
2021/05/20 01:02:14;;;;;;;2.20;0.40;;;10.80;99.90;;;;;;1878027;76;21078;-75
2021/05/20 01:04:40;;;;;;;3.70;0.50;;;10.90;99.90;;;;;;1878057;76;21074;-73
2021/05/20 01:07:07;;;;;;;3.17;0.50;;;10.80;99.90;;;;;;1877870;76;21079;-73
2021/05/20 01:09:35;;;;;;;0.30;0.30;;;10.70;99.90;;;;;;1877860;76;21047;-74
2021/05/20 01:12:01;;;;;;;0.70;0.30;;;10.80;99.90;;;;;;1877743;76;21158;-74
2021/05/20 01:14:27;;;;;;;1.85;0.45;;;10.80;99.90;;;;;;1877860;76;21185;-73
2021/05/20 01:16:53;;;;;;;5.55;0.53;;;10.80;99.90;;;;;;1877925;76;21173;-73
2021/05/20 01:19:19;;;;;;;0.65;0.30;;;10.70;99.90;;;;;;1877948;76;21127;-72
2021/05/20 01:21:45;;;;;;;0.45;0.40;;;10.80;99.90;;;;;;1877954;76;21103;-74
2021/05/20 01:24:11;;;;;;;0.42;0.42;;;10.70;99.90;;;;;;1877991;76;21103;-75
2021/05/20 01:26:37;;;;;;;0.33;0.33;;;10.70;99.90;;;;;;1893525;75;21505;-73
2021/05/20 01:29:03;;;;;;;2.72;0.40;;;10.60;99.90;;;;;;1878128;76;21477;-73
2021/05/20 01:31:30;;;;;;;0.53;0.40;;;10.60;99.90;;;;;;1878209;76;21487;-73
2021/05/20 01:33:56;;;;;;;2.10;0.68;;;10.70;99.90;;;;;;1877910;76;21539;-74
2021/05/20 01:36:22;;;;;;;3.12;0.37;;;10.50;99.90;;;;;;1877868;76;21141;-73
2021/05/20 01:38:48;;;;;;;0.70;0.60;;;10.50;99.90;;;;;;1877828;76;21107;-73
2021/05/20 01:41:14;;;;;;;0.20;0.20;;;10.40;99.90;;;;;;1877974;76;21056;-73
2021/05/20 01:43:40;;;;;;;0.95;0.30;;;10.40;99.90;;;;;;1877825;76;21079;-73
2021/05/20 01:46:06;;;;;;;0.60;0.50;;;10.40;99.90;;;;;;1877891;76;21079;-73
2021/05/20 01:48:32;;;;;;;0.47;0.40;;;10.40;99.90;;;;;;1877865;76;21100;-73
2021/05/20 01:50:59;;;;;;;0.80;0.42;;;10.40;99.90;;;;;;1877794;76;21150;-73
2021/05/20 01:53:25;;;;;;;0.50;0.35;;;10.40;99.90;;;;;;1877934;76;21075;-73
2021/05/20 01:55:51;;;;;;;3.87;0.45;;;10.30;99.90;;;;;;1877933;76;21189;-73
2021/05/20 01:58:17;;;;;;;0.53;0.53;;;10.30;99.90;;;;;;1877883;76;21177;-73
2021/05/20 02:00:43;;;;;;;3.47;0.53;;;10.40;99.90;;;;;;1877852;76;21183;-73
2021/05/20 02:03:09;;;;;;;0.50;0.40;;;10.40;99.90;;;;;;1877893;76;21189;-73
2021/05/20 02:05:35;;;;;;;0.70;0.40;;;10.30;99.90;;;;;;1877873;76;21051;-73
2021/05/20 02:08:01;;;;;;;0.80;0.40;;;10.40;99.90;;;;;;1877908;76;21267;-73
2021/05/20 02:10:28;;;;;;;1.20;0.45;;;10.30;99.90;;;;;;1877782;76;21075;-73
2021/05/20 02:12:54;;;;;;;1.17;0.37;;;10.30;99.90;;;;;;1878000;76;21111;-73
2021/05/20 02:15:20;;;;;;;4.95;0.40;;;10.30;99.90;;;;;;1877697;76;21204;-73
2021/05/20 02:17:46;;;;;;;0.65;0.40;;;10.40;99.90;;;;;;1877876;76;21111;-73
2021/05/20 02:20:12;;;;;;;2.50;0.40;;;10.30;99.90;;;;;;1877648;76;21085;-73
2021/05/20 02:22:38;;;;;;;0.85;0.42;;;10.10;99.90;;;;;;1877868;76;21539;-73
2021/05/20 02:25:04;;;;;;;1.17;0.50;;;10.10;99.90;;;;;;1877948;76;21484;-73
2021/05/20 02:27:30;;;;;;;0.65;0.50;;;10.00;99.90;;;;;;1877966;76;21579;-73
2021/05/20 02:29:56;;;;;;;1.07;0.62;;;10.10;99.90;;;;;;1877840;76;21554;-73
2021/05/20 02:32:23;;;;;;;0.57;0.40;;;10.10;99.90;;;;;;1877897;76;21535;-73
2021/05/20 02:34:49;;;;;;;0.82;0.40;;;10.10;99.90;;;;;;1877901;76;21104;-73
2021/05/20 02:37:15;;;;;;;0.50;0.50;;;10.10;99.90;;;;;;1877884;76;21096;-73
2021/05/20 02:39:41;;;;;;;1.20;0.62;;;10.00;99.90;;;;;;1877862;76;21075;-73
2021/05/20 02:42:09;;;;;;;0.70;0.50;;;10.00;99.90;;;;;;1877893;76;21074;-73
2021/05/20 02:44:35;;;;;;;0.53;0.30;;;9.90;99.90;;;;;;1877882;76;21584;-73
2021/05/20 02:47:01;;;;;;;0.30;0.30;;;9.80;99.90;;;;;;1877907;76;21547;-73
2021/05/20 02:49:27;;;;;;;0.68;0.50;;;9.70;99.90;;;;;;1878035;76;21076;-73
2021/05/20 02:51:53;;;;;;;0.45;0.35;;;9.80;99.90;;;;;;1877943;76;21100;-73
2021/05/20 02:54:19;;;;;;;1.57;0.50;;;9.80;99.90;;;;;;1878001;76;21102;-73
2021/05/20 02:56:46;;;;;;;1.62;0.70;;;9.90;99.90;;;;;;1878010;76;21210;-73
2021/05/20 03:02:04;;;;;;;0.40;0.40;;;9.90;99.90;;;;;;1886015;75;21136;-73
2021/05/20 03:04:25;;;;;;;0.60;0.40;;;9.90;99.90;;;;;;1878023;76;21494;-73
2021/05/20 03:06:51;;;;;;;1.40;0.50;;;9.90;99.90;;;;;;1879397;76;21490;-73
2021/05/20 03:09:18;;;;;;;0.60;0.50;;;9.80;99.90;;;;;;1879485;76;21462;-73
2021/05/20 03:11:44;;;;;;;1.55;0.62;;;9.80;99.90;;;;;;1879284;76;21142;-73
2021/05/20 03:14:10;;;;;;;0.65;0.40;;;9.70;99.90;;;;;;1879421;76;21090;-73
2021/05/20 03:16:36;;;;;;;1.42;0.40;;;9.80;99.90;;;;;;1879370;76;21083;-73
2021/05/20 03:19:02;;;;;;;0.50;0.50;;;9.80;99.90;;;;;;1879452;76;21152;-73
2021/05/20 03:21:28;;;;;;;1.20;0.50;;;9.70;99.90;;;;;;1879259;76;21082;-73
2021/05/20 03:23:55;;;;;;;2.02;0.70;;;9.70;99.90;;;;;;1879611;76;21066;-73
2021/05/20 03:26:21;;;;;;;0.30;0.30;;;9.70;99.90;;;;;;1879390;76;21483;-73
2021/05/20 03:28:47;;;;;;;0.90;0.57;;;9.70;99.90;;;;;;1879481;76;21562;-73
2021/05/20 03:31:13;;;;;;;0.40;0.28;;;9.70;99.90;;;;;;1879522;76;21441;-73
2021/05/20 03:33:41;;;;;;;0.40;0.40;;;9.70;99.90;;;;;;1879401;76;21499;-73
2021/05/20 03:36:07;;;;;;;1.00;0.50;;;9.70;99.90;;;;;;1879274;76;21102;-73
2021/05/20 03:38:33;;;;;;;0.37;0.37;;;9.70;99.90;;;;;;1879381;76;21194;-73
2021/05/20 03:41:03;;;;;;;0.47;0.47;;;9.70;99.90;;;;;;1879332;76;21166;-73
2021/05/20 03:43:27;;;;;;;1.47;0.40;;;9.80;99.90;;;;;;1878878;75;21079;-73
2021/05/20 03:45:53;;;;;;;0.98;0.40;;;9.90;99.90;;;;;;1879368;76;21094;-73
2021/05/20 03:48:19;;;;;;;0.50;0.50;;;10.00;99.90;;;;;;1879387;76;21090;-73
2021/05/20 03:50:45;;;;;;;2.52;0.50;;;9.90;99.90;;;;;;1879353;76;21185;-73
2021/05/20 03:53:11;;;;;;;0.30;0.30;;;9.80;99.90;;;;;;1879373;76;21106;-73
2021/05/20 03:55:37;;;;;;;0.72;0.55;;;9.90;99.90;;;;;;1879383;76;21180;-73
2021/05/20 03:58:04;;;;;;;2.17;0.70;;;9.80;99.90;;;;;;1879351;76;21562;-73
2021/05/20 04:00:30;;;;;;;0.98;0.50;;;9.80;99.90;;;;;;1879333;76;21427;-73
2021/05/20 04:02:56;;;;;;;0.40;0.40;;;9.90;99.90;;;;;;1879412;76;21553;-73
2021/05/20 04:05:22;;;;;;;0.95;0.30;;;9.90;99.90;;;;;;1879235;76;21152;-73
2021/05/20 04:07:48;;;;;;;0.53;0.53;;;9.70;99.90;;;;;;1879453;76;21066;-73
2021/05/20 04:10:14;;;;;;;0.50;0.50;;;9.60;99.90;;;;;;1879260;76;21120;-73
2021/05/20 04:12:40;;;;;;;0.62;0.33;;;9.60;99.90;;;;;;1879456;76;21062;-73
2021/05/20 04:15:06;;;;;;;4.53;0.57;;;9.60;99.90;;;;;;1879398;76;21091;-73
2021/05/20 04:17:33;;;;;;;0.42;0.42;;;9.80;99.90;;;;;;1879460;76;21065;-73
2021/05/20 04:19:59;;;;;;;1.05;0.40;;;9.80;99.90;;;;;;1879450;76;21058;-73
2021/05/20 04:22:25;;;;;;;1.22;0.50;;;9.80;99.90;;;;;;1879431;76;21113;-73
2021/05/20 04:24:51;;;;;;;0.75;0.50;;;9.80;99.90;;;;;;1879444;76;21135;-73
2021/05/20 04:27:17;;;;;;;1.67;0.50;;;9.60;99.90;;;;;;1879349;76;21102;-73
2021/05/20 04:29:43;;;;;;;0.90;0.53;;;9.40;99.90;;;;;;1879382;76;21107;-73
2021/05/20 04:32:09;;;;;;;0.82;0.50;;;9.50;99.90;;;;;;1879354;76;21168;-73
2021/05/20 04:34:35;;;;;;;0.33;0.33;;;9.50;99.90;;;;;;1879328;76;21098;-73
2021/05/20 04:37:06;;;;;;;0.72;0.50;;;9.60;99.90;;;;;;1879313;76;21066;-73
2021/05/20 04:39:31;;;;;;;0.40;0.40;;;9.70;99.90;;;;;;1879455;75;21514;-73
2021/05/20 04:41:57;;;;;;;0.62;0.42;;;9.90;99.90;;;;;;1879221;76;21160;-73
2021/05/20 04:44:23;;;;;;;0.47;0.45;;;10.00;99.90;;;;;;1879438;76;21201;-73
2021/05/20 04:46:49;;;;;;;0.65;0.50;;;9.90;99.90;;;;;;1879184;76;21052;-73
2021/05/20 04:49:16;;;;;;;0.78;0.35;;;9.80;99.90;;;;;;1879285;76;21155;-73
2021/05/20 04:51:42;;;;;;;0.60;0.50;;;10.00;99.90;;;;;;1879380;76;21548;-73
2021/05/20 04:54:08;;;;;;;1.75;0.55;;;10.10;99.90;;;;;;1879688;76;21095;-73
2021/05/20 04:56:34;;;;;;;1.85;0.50;;;10.20;99.90;;;;;;1879976;76;21132;-73
2021/05/20 04:59:01;;;;;;;1.87;0.65;;;10.30;99.90;;;;;;1879323;76;21098;-73
2021/05/20 05:01:27;;;;;;;1.17;0.37;;;10.40;99.90;;;;;;1879787;75;21097;-75
2021/05/20 05:03:53;;;;;;;1.45;0.40;;;10.30;99.90;;;;;;1879294;76;21235;-73
2021/05/20 05:06:19;;;;;;;1.65;0.57;;;10.30;99.90;;;;;;1879445;76;21027;-73
2021/05/20 05:08:45;;;;;;;0.53;0.53;;;10.50;99.90;;;;;;1879400;76;21059;-73
2021/05/20 05:11:12;;;;;;;1.22;0.53;;;10.70;99.90;;;;;;1879324;76;21098;-73
2021/05/20 05:13:38;;;;;;;0.40;0.35;;;10.70;99.90;;;;;;1879324;76;21056;-73
2021/05/20 05:16:04;;;;;;;1.17;0.50;;;10.60;99.90;;;;;;1879303;76;21180;-74
2021/05/20 05:18:30;;;;;;;0.53;0.50;;;10.50;99.90;;;;;;1879378;76;21090;-74
2021/05/20 05:20:56;;;;;;;0.65;0.50;;;10.80;99.90;;;;;;1879340;76;21078;-73
2021/05/20 05:23:23;;;;;;;1.30;0.50;;;10.90;99.90;;;;;;1879279;76;21515;-74
2021/05/20 05:25:49;;;;;;;2.47;0.60;;;10.80;99.90;;;;;;1879272;76;21043;-74
2021/05/20 05:28:15;;;;;;;3.45;0.50;;;10.80;99.90;;;;;;1879269;76;21112;-73
2021/05/20 05:30:41;;;;;;;0.68;0.40;;;10.90;99.90;;;;;;1879245;76;21070;-74
2021/05/20 05:33:07;;;;;;;0.50;0.50;;;11.00;99.90;;;;;;1879430;76;21090;-74
2021/05/20 05:35:33;;;;;;;0.60;0.42;;;11.10;99.90;;;;;;1879196;76;21081;-75
2021/05/20 05:37:59;;;;;;;1.57;0.68;;;11.10;99.90;;;;;;1879347;76;21095;-74
2021/05/20 05:40:26;;;;;;;4.20;0.60;;;11.10;99.90;;;;;;1879263;76;21089;-74
2021/05/20 05:42:52;;;;;;;1.35;0.53;;;11.10;99.90;;;;;;1879388;76;21490;-73
2021/05/20 05:45:18;;;;;;;3.10;0.50;;;11.30;99.90;;;;;;1879303;76;21546;-74
2021/05/20 05:47:44;;;;;;;3.37;0.53;;;11.20;99.90;;;;;;1879409;76;21507;-73
2021/05/20 05:50:15;;;;;;;0.70;0.60;;;11.30;99.90;;;;;;1879207;76;21442;-74
2021/05/20 05:52:38;;;;;;;1.20;0.70;;;11.40;99.90;;;;;;1878734;75;21079;-74
2021/05/20 05:55:04;;;;;;;0.35;0.35;;;11.60;99.90;;;;;;1881403;76;21125;-74
2021/05/20 05:57:31;;;;;;;0.30;0.30;;;12.40;99.90;;;;;;1879407;76;21136;-74
2021/05/20 05:59:57;;;;;;;0.95;0.60;;;12.80;99.90;;;;;;1879174;76;21159;-74
2021/05/20 06:02:23;;;;;;;0.30;0.30;;;12.30;99.90;;;;;;1879289;76;21489;-74
2021/05/20 06:04:49;;;;;;;0.85;0.40;;;11.80;99.90;;;;;;1879434;76;21054;-74
2021/05/20 06:07:15;;;;;;;0.82;0.45;;;11.70;99.90;;;;;;1879102;76;21147;-74
2021/05/20 06:09:41;;;;;;;1.65;0.60;;;11.60;99.90;;;;;;1879277;76;21106;-74
2021/05/20 06:12:08;;;;;;;7.10;0.65;;;11.30;99.90;;;;;;1857924;76;21078;-73
2021/05/20 06:14:37;;;;;;;0.85;0.50;;;11.40;99.90;;;;;;1879233;76;21077;-74
2021/05/20 06:17:02;;;;;;;0.33;0.33;;;11.50;99.90;;;;;;1879081;75;21091;-74
2021/05/20 06:19:28;;;;;;;8.88;0.50;;;11.40;99.90;;;;;;1879283;76;21102;-74
2021/05/20 06:21:54;;;;;;;0.53;0.53;;;11.30;99.90;;;;;;1879094;76;21167;-74
2021/05/20 06:24:20;;;;;;;0.72;0.40;;;11.00;99.90;;;;;;1879340;76;21047;-74
2021/05/20 06:26:46;;;;;;;0.40;0.40;;;11.00;99.90;;;;;;1879244;76;21118;-73
2021/05/20 06:29:12;;;;;;;0.40;0.40;;;11.00;99.90;;;;;;1879161;76;21207;-74
2021/05/20 06:31:38;;;;;;;0.65;0.65;;;11.00;99.90;;;;;;1879169;76;21180;-74
2021/05/20 06:34:04;;;;;;;0.40;0.40;;;11.00;99.90;;;;;;1879210;76;21079;-75
2021/05/20 06:36:31;;;;;;;1.40;0.80;;;11.20;99.90;;;;;;1879185;76;21042;-75
2021/05/20 06:38:57;;;;;;;1.00;0.62;;;11.10;99.90;;;;;;1879178;76;21090;-75
2021/05/20 06:41:23;;;;;;;0.72;0.50;;;11.10;99.90;;;;;;1879278;76;21196;-74
2021/05/20 06:43:49;;;;;;;0.40;0.40;;;11.10;99.90;;;;;;1879289;76;21124;-75
2021/05/20 06:46:15;;;;;;;1.42;0.80;;;11.10;99.90;;;;;;1879203;76;21141;-74
2021/05/20 06:48:41;;;;;;;0.62;0.55;;;11.20;99.90;;;;;;1879204;76;21078;-74
2021/05/20 06:51:08;;;;;;;1.30;0.60;;;11.20;99.90;;;;;;1879171;76;21094;-74
2021/05/20 06:53:35;;;;;;;1.55;0.68;;;11.30;99.90;;;;;;1879200;76;21147;-74
2021/05/20 06:56:03;;;;;;;3.00;0.90;;;11.50;99.90;;;;;;1879250;76;21534;-74
2021/05/20 07:01:14;;;;;;;0.62;0.42;;;11.30;99.90;;;;;;1881521;76;21506;-74
2021/05/20 07:03:41;;;;;;;1.30;0.40;;;11.40;99.90;;;;;;1879062;76;21513;-74
2021/05/20 07:06:07;;;;;;;4.15;0.50;;;11.40;99.90;;;;;;1879231;76;21114;-75
2021/05/20 07:08:33;;;;;;;1.77;0.42;;;11.30;99.90;;;;;;1879363;76;21034;-74
2021/05/20 07:10:59;;;;;;;1.05;0.57;;;11.50;99.90;;;;;;1879150;76;21042;-74
2021/05/20 07:13:25;;;;;;;1.62;0.70;;;11.50;99.90;;;;;;1879397;76;21179;-74
2021/05/20 07:15:52;;;;;;;1.07;0.50;;;11.70;99.90;;;;;;1879251;76;21188;-74
2021/05/20 07:18:18;;;;;;;0.50;0.50;;;11.80;99.90;;;;;;1879448;76;21144;-74
2021/05/20 07:20:44;;;;;;;1.27;0.40;;;12.00;99.90;;;;;;1879195;76;21086;-74
2021/05/20 07:25:54;;;;;;;0.55;0.42;;;13.50;99.90;;;;;;1880429;76;21078;-74
2021/05/20 07:28:22;;;;;;;0.72;0.45;;;14.70;99.90;;;;;;1879335;76;21098;-75
2021/05/20 07:30:48;;;;;;;0.42;0.42;;;15.30;99.90;;;;;;1879260;76;21482;-74
2021/05/20 07:33:14;;;;;;;1.80;0.37;;;16.30;99.90;;;;;;1879333;76;21522;-75
2021/05/20 07:35:40;;;;;;;0.20;0.20;;;17.00;99.90;;;;;;1879312;76;21102;-74
2021/05/20 07:38:07;;;;;;;4.10;1.85;;;16.70;99.90;;;;;;1879213;76;21180;-75
2021/05/20 07:40:33;;;;;;;0.42;0.40;;;17.50;99.90;;;;;;1879149;76;21151;-75
2021/05/20 07:42:59;;;;;;;0.20;0.20;;;16.80;99.90;;;;;;1879401;76;21050;-75
2021/05/20 07:45:25;;;;;;;2.42;0.30;;;16.50;99.90;;;;;;1879404;76;21199;-75
2021/05/20 07:47:51;;;;;;;0.40;0.40;;;15.60;99.90;;;;;;1879437;76;21144;-75
2021/05/20 07:50:17;;;;;;;0.40;0.40;;;15.10;99.90;;;;;;1879414;76;21062;-74
2021/05/20 07:52:43;;;;;;;5.75;0.50;;;14.30;99.90;;;;;;1879421;76;21074;-75
2021/05/20 07:55:09;;;;;;;3.92;1.20;;;13.80;99.90;;;;;;1879282;76;21503;-75
2021/05/20 07:57:36;;;;;;;0.40;0.23;;;13.40;99.90;;;;;;1879320;76;21570;-75
2021/05/20 08:00:02;;;;;;;0.23;0.23;;;13.40;99.90;;;;;;1879302;76;21530;-75
2021/05/20 08:02:34;;;;;;;0.30;0.30;;;13.50;99.90;;;;;;1880500;76;21587;-75
2021/05/20 08:05:01;;;;;;;0.70;0.35;;;13.20;99.90;;;;;;1878333;76;21130;-75
2021/05/20 08:12:35;;;;;;;0.40;0.40;;;13.00;99.90;;;;;;1857758;76;21172;-77
2021/05/20 08:15:02;;;;;;;0.50;0.50;;;13.10;99.90;;;;;;1879309;76;21144;-76
2021/05/20 08:17:28;;;;;;;1.05;0.30;;;13.10;99.90;;;;;;1879335;76;21537;-75
2021/05/20 08:19:54;;;;;;;0.40;0.40;;;13.20;99.90;;;;;;1879375;76;21461;-75
2021/05/20 08:22:20;;;;;;;3.98;1.05;;;13.20;99.90;;;;;;1879324;76;21521;-77
2021/05/20 08:24:46;;;;;;;2.42;0.50;;;13.40;99.90;;;;;;1879197;76;21509;-76
2021/05/20 08:27:12;;;;;;;0.85;0.57;;;13.60;99.90;;;;;;1879211;76;21518;-75
2021/05/20 08:29:38;;;;;;;5.72;0.57;;;14.40;99.90;;;;;;1879342;76;21592;-80
2021/05/20 08:32:04;;;;;;;1.42;0.40;;;14.90;99.90;;;;;;1879263;76;21510;-76
2021/05/20 08:34:31;;;;;;;2.80;0.35;;;14.80;99.90;;;;;;1879204;76;21083;-76
2021/05/20 08:36:57;;;;;;;0.33;0.33;;;14.70;99.90;;;;;;1879179;76;21204;-75
2021/05/20 08:39:23;;;;;;;1.77;0.28;;;14.50;99.90;;;;;;1879309;76;21095;-76
2021/05/20 08:41:49;;;;;;;0.72;0.30;;;14.40;99.90;;;;;;1880358;76;21074;-75
2021/05/20 08:44:17;;;;;;;4.70;1.22;;;14.40;99.90;;;;;;1879323;76;21169;-76
2021/05/20 08:46:43;;;;;;;17.55;1.05;;;14.50;99.90;;;;;;1879233;75;21468;-76
2021/05/20 08:49:14;;;;;;;1.05;0.50;;;14.40;99.90;;;;;;1879396;76;21038;-76
2021/05/20 08:51:40;;;;;;;5.72;0.40;;;14.30;99.90;;;;;;1879504;76;21094;-76
2021/05/20 08:54:06;;;;;;;9.50;0.55;;;14.60;99.90;;;;;;1879439;76;21171;-76
2021/05/20 08:56:32;;;;;;;0.47;0.30;;;14.80;99.90;;;;;;1879490;76;21065;-75
2021/05/20 08:58:59;;;;;;;1.10;0.40;;;14.90;99.90;;;;;;1879584;76;21065;-75
2021/05/20 09:01:25;;;;;;;0.30;0.30;;;15.00;99.90;;;;;;1879400;76;21105;-76
2021/05/20 09:03:51;;;;;;;0.57;0.40;;;14.90;99.90;;;;;;1879157;75;21145;-75
2021/05/20 09:06:18;;;;;;;3.92;0.68;;;14.90;99.90;;;;;;1879370;76;21062;-76
2021/05/20 09:08:44;;;;;;;0.42;0.37;;;14.70;99.90;;;;;;1879342;76;21106;-75
2021/05/20 09:11:10;;;;;;;0.57;0.30;;;14.60;99.90;;;;;;1879301;76;21090;-76
2021/05/20 09:13:38;;;;;;;0.30;0.30;;;14.80;99.90;;;;;;1879317;76;21099;-75
2021/05/20 09:16:04;;;;;;;0.60;0.40;;;15.20;99.90;;;;;;1879196;76;21086;-76
2021/05/20 09:18:30;;;;;;;4.22;0.40;;;15.20;99.90;;;;;;1879435;76;21181;-76
2021/05/20 09:20:57;;;;;;;3.60;0.30;;;15.10;99.90;;;;;;1879524;76;21077;-76
2021/05/20 09:23:23;;;;;;;0.78;0.47;;;15.10;99.90;;;;;;1879482;76;21077;-75
2021/05/20 09:25:49;;;;;;;0.53;0.33;;;14.90;99.90;;;;;;1879154;76;21497;-76
2021/05/20 09:28:15;;;;;;;3.85;0.82;;;14.70;99.90;;;;;;1879263;76;21566;-76
2021/05/20 09:30:41;;;;;;;0.65;0.65;;;14.80;99.90;;;;;;1879250;76;21522;-74
2021/05/20 09:33:08;;;;;;;2.20;0.60;;;15.00;99.90;;;;;;1879206;76;21462;-74
2021/05/20 09:35:34;;;;;;;1.32;0.47;;;14.80;99.90;;;;;;1879268;76;21099;-75
2021/05/20 09:38:01;;;;;;;1.35;0.50;;;15.00;99.90;;;;;;1879337;76;21069;-75
2021/05/20 09:40:27;;;;;;;0.88;0.45;;;15.20;99.90;;;;;;1879232;76;21518;-75
2021/05/20 09:42:53;;;;;;;0.90;0.35;;;15.30;99.90;;;;;;1879231;76;21077;-75
2021/05/20 09:45:20;;;;;;;1.17;0.30;;;15.50;99.90;;;;;;1879375;76;21136;-74
2021/05/20 09:47:46;;;;;;;4.70;0.50;;;15.60;99.90;;;;;;1879296;76;21581;-75
2021/05/20 09:50:12;;;;;;;0.57;0.40;;;15.30;99.90;;;;;;1879265;76;21078;-75
2021/05/20 09:52:38;;;;;;;2.22;0.53;;;15.00;99.90;;;;;;1879231;76;21098;-73
2021/05/20 09:55:04;;;;;;;1.30;0.30;;;15.00;99.90;;;;;;1879201;76;21065;-74
2021/05/20 09:57:30;;;;;;;1.20;0.40;;;15.00;99.90;;;;;;1879314;76;21058;-75
2021/05/20 09:59:56;;;;;;;0.25;0.23;;;14.90;99.90;;;;;;1879152;76;21046;-74
2021/05/20 10:02:22;;;;;;;4.60;0.33;;;15.00;99.90;;;;;;1879396;76;21151;-74
2021/05/20 10:04:49;;;;;;;0.93;0.45;;;15.10;99.90;;;;;;1879343;76;21129;-74
2021/05/20 10:07:15;;;;;;;0.53;0.33;;;15.50;99.90;;;;;;1879214;76;21600;-75
2021/05/20 10:09:41;;;;;;;0.40;0.30;;;15.80;99.90;;;;;;1879185;76;21518;-75
2021/05/20 10:12:07;;;;;;;0.53;0.53;;;15.60;99.90;;;;;;1879093;76;21534;-75
2021/05/20 10:14:34;;;;;;;3.75;0.28;;;16.00;99.90;;;;;;1879069;76;21111;-76
2021/05/20 10:17:00;;;;;;;5.80;0.60;;;17.00;99.90;;;;;;1879327;76;21083;-76
2021/05/20 10:19:26;;;;;;;0.78;0.33;;;17.70;99.90;;;;;;1879332;76;21117;-76
2021/05/20 10:21:52;;;;;;;0.20;0.20;;;17.80;99.90;;;;;;1879309;76;21172;-75
2021/05/20 10:24:18;;;;;;;0.60;0.30;;;17.90;99.90;;;;;;1879223;76;21090;-75
2021/05/20 10:26:44;;;;;;;0.72;0.33;;;17.00;99.90;;;;;;1879507;76;21102;-75
2021/05/20 10:29:10;;;;;;;1.07;0.70;;;16.60;99.90;;;;;;1879318;76;21083;-75
2021/05/20 10:31:37;;;;;;;0.68;0.37;;;16.70;99.90;;;;;;1879253;76;21067;-75
2021/05/20 10:34:03;;;;;;;0.13;0.13;;;16.90;99.90;;;;;;1879329;76;21083;-75
2021/05/20 10:36:29;;;;;;;6.40;0.60;;;17.30;99.90;;;;;;1879227;76;21062;-75
2021/05/20 10:38:55;;;;;;;0.10;0.10;;;17.30;99.90;;;;;;1879270;76;21074;-75
2021/05/20 10:41:23;;;;;;;0.62;0.15;;;18.00;99.90;;;;;;1879245;76;21058;-75
2021/05/20 10:43:52;;;;;;;0.37;0.33;;;18.30;99.90;;;;;;1879260;76;21141;-74
2021/05/20 10:46:18;;;;;;;5.47;0.50;;;18.10;99.90;;;;;;1879409;76;21046;-74
2021/05/20 10:48:44;;;;;;;0.57;0.30;;;17.90;99.90;;;;;;1879442;76;21069;-75
2021/05/20 10:51:10;;;;;;;0.57;0.33;;;18.10;99.90;;;;;;1879467;76;21147;-75
2021/05/20 10:53:36;;;;;;;19.35;1.85;;;18.30;99.90;;;;;;1879257;76;21195;-75
2021/05/20 10:56:02;;;;;;;1.75;0.30;;;18.00;99.90;;;;;;1879417;76;21088;-75
2021/05/20 10:58:29;;;;;;;0.30;0.30;;;17.60;99.90;;;;;;1879248;76;21110;-76
2021/05/20 11:00:55;;;;;;;0.70;0.37;;;17.50;99.90;;;;;;1879275;76;21098;-76
2021/05/20 11:03:21;;;;;;;0.20;0.20;;;17.30;99.90;;;;;;1879370;76;21172;-76
2021/05/20 11:05:47;;;;;;;0.15;0.15;;;16.80;99.90;;;;;;1879274;76;21095;-76
2021/05/20 11:08:13;;;;;;;0.10;0.10;;;16.80;99.90;;;;;;1879281;76;21061;-76
2021/05/20 11:10:40;;;;;;;0.10;0.10;;;16.80;99.90;;;;;;1879286;76;21102;-76
2021/05/20 11:13:06;;;;;;;0.93;0.20;;;16.70;99.90;;;;;;1879375;76;21066;-76
2021/05/20 11:15:32;;;;;;;0.53;0.20;;;16.50;99.90;;;;;;1885860;76;21075;-76
2021/05/20 11:17:58;;;;;;;1.95;0.37;;;16.40;99.90;;;;;;1879352;76;21091;-76
2021/05/20 11:20:24;;;;;;;0.10;0.10;;;16.50;99.90;;;;;;1879480;76;21469;-76
2021/05/20 11:22:50;;;;;;;0.20;0.17;;;16.40;99.90;;;;;;1879326;76;21535;-76
2021/05/20 11:25:16;;;;;;;0.45;0.45;;;16.30;99.90;;;;;;1879537;76;21485;-75
2021/05/20 11:27:42;;;;;;;0.50;0.50;;;15.90;99.90;;;;;;1879310;76;21463;-75
2021/05/20 11:30:09;;;;;;;0.47;0.40;;;15.60;99.90;;;;;;1879489;76;21486;-77
2021/05/20 11:32:35;;;;;;;1.30;0.62;;;15.80;99.90;;;;;;1879493;76;21070;-76
2021/05/20 11:35:15;;;;;;;0.60;0.40;;;16.40;99.90;;;;;;1879243;76;21070;-76
2021/05/20 11:37:39;;;;;;;0.35;0.30;;;16.90;99.90;;;;;;1879516;75;21079;-75
2021/05/20 11:40:05;;;;;;;0.45;0.30;;;17.10;99.90;;;;;;1882034;76;21505;-75
2021/05/20 11:42:32;;;;;;;0.42;0.20;;;17.30;99.90;;;;;;1879332;76;21546;-76
2021/05/20 11:44:58;;;;;;;0.20;0.20;;;17.50;99.90;;;;;;1879387;76;21098;-76
2021/05/20 11:47:24;;;;;;;1.25;0.50;;;18.20;99.90;;;;;;1879452;76;21143;-75
2021/05/20 11:49:50;;;;;;;0.82;0.42;;;18.10;99.90;;;;;;1879472;76;21147;-75
2021/05/20 11:52:17;;;;;;;1.95;0.53;;;18.00;99.90;;;;;;1879449;76;21085;-75
2021/05/20 11:54:49;;;;;;;1.37;0.23;;;17.60;99.90;;;;;;1879376;76;21172;-75
2021/05/20 11:57:14;;;;;;;;;;;16.80;99.90;;;;;;1886232;76;21078;-76
2021/05/20 11:59:42;;;;;;;0.10;0.10;;;16.60;99.90;;;;;;1879393;76;20164;-77
2021/05/20 12:02:08;;;;;;;0.30;0.28;;;16.50;99.90;;;;;;1879522;76;21121;-76
2021/05/20 12:04:34;;;;;;;0.25;0.20;;;16.30;99.90;;;;;;1879597;76;21047;-75
2021/05/20 12:07:01;;;;;;;0.47;0.30;;;16.40;99.90;;;;;;1879399;76;21184;-75
2021/05/20 12:09:28;;;;;;;1.15;0.35;;;16.50;99.90;;;;;;1879297;76;21106;-76
2021/05/20 12:11:54;;;;;;;1.20;0.68;;;16.70;99.90;;;;;;1879325;76;21073;-76
2021/05/20 12:14:20;;;;;;;5.30;2.62;;;17.00;99.90;;;;;;1879295;76;21153;-75
2021/05/20 12:16:46;;;;;;;1.00;0.50;;;17.10;99.90;;;;;;1879335;76;21109;-76
2021/05/20 12:19:12;;;;;;;0.20;0.20;;;17.00;99.90;;;;;;1879268;76;21103;-75
2021/05/20 12:21:38;;;;;;;1.50;0.20;;;16.90;99.90;;;;;;1883637;76;21051;-75
2021/05/20 12:24:04;;;;;;;0.80;0.30;;;16.90;99.90;;;;;;1879315;76;21082;-75
2021/05/20 12:26:30;;;;;;;0.30;0.30;;;17.20;99.90;;;;;;1879412;76;21062;-75
2021/05/20 12:28:57;;;;;;;6.37;0.42;;;17.50;99.90;;;;;;1879467;76;21182;-76
2021/05/20 12:31:23;;;;;;;1.55;0.30;;;17.40;99.90;;;;;;1879399;76;21039;-75
2021/05/20 12:33:49;;;;;;;0.53;0.37;;;17.70;99.90;;;;;;1884143;76;21074;-75
2021/05/20 12:36:15;;;;;;;0.13;0.13;;;17.80;99.90;;;;;;1879353;76;21069;-75
2021/05/20 12:38:45;;;;;;;0.20;0.10;;;18.00;99.90;;;;;;1879215;76;21155;-75
2021/05/20 12:41:09;;;;;;;1.10;0.20;;;18.40;99.90;;;;;;1879438;76;21087;-76
2021/05/20 12:43:37;;;;;;;0.15;0.15;;;17.90;99.90;;;;;;1879476;76;21073;-75
2021/05/20 12:46:06;;;;;;;0.53;0.30;;;17.60;99.90;;;;;;1879297;76;21087;-75
2021/05/20 12:48:32;;;;;;;0.50;0.30;;;17.40;99.90;;;;;;1879569;76;21122;-77
2021/05/20 12:50:59;;;;;;;0.20;0.20;;;17.30;99.90;;;;;;1879335;76;21211;-76
2021/05/20 12:53:25;;;;;;;0.62;0.25;;;17.30;99.90;;;;;;1879260;76;21091;-76
2021/05/20 12:55:53;;;;;;;1.45;0.40;;;17.20;99.90;;;;;;1879284;76;21098;-76